Time;durP1;ratioP1;P1;durP2;ratioP2;P2;SDS_P1;SDS_P2;PMS_P1;PMS_P2;Temp;Humidity;BMP_temperature;BMP_pressure;BME280_temperature;BME280_humidity;BME280_pressure;Samples;Min_cycle;Max_cycle;Signal;HPM_P1;HPM_P2
2022/12/10 00:02:12;;;;;;;24.93;20.53;;;;;;;-1.12;100.00;95750.38;5022718;28;20210;-74
2022/12/10 00:04:40;;;;;;;25.60;21.80;;;;;;;-1.15;100.00;95756.69;5029390;28;20595;-70
2022/12/10 00:07:15;;;;;;;26.90;20.87;;;;;;;-1.02;100.00;95751.13;4976333;28;20607;-72
2022/12/10 00:09:43;;;;;;;22.03;19.00;;;;;;;-0.99;100.00;95761.25;5023025;28;20447;-72
2022/12/10 00:12:10;;;;;;;25.83;20.93;;;;;;;-1.02;100.00;95758.94;5029550;28;20200;-73
2022/12/10 00:14:38;;;;;;;24.60;20.90;;;;;;;-0.95;100.00;95757.38;4994518;28;20767;-70
2022/12/10 00:17:07;;;;;;;26.97;21.33;;;;;;;-1.00;100.00;95758.81;5027965;28;20316;-69
2022/12/10 00:19:39;;;;;;;26.87;22.50;;;;;;;-0.95;100.00;95756.56;5017863;28;20226;-71
2022/12/10 00:22:07;;;;;;;27.13;21.73;;;;;;;-0.99;100.00;95757.84;5019911;28;20591;-72
2022/12/10 00:24:35;;;;;;;25.73;20.90;;;;;;;-0.95;100.00;95769.56;4989254;28;20892;-72
2022/12/10 00:27:03;;;;;;;25.60;20.37;;;;;;;-0.91;100.00;95763.94;5027321;28;20234;-71
2022/12/10 00:29:31;;;;;;;27.67;21.50;;;;;;;-0.93;100.00;95765.03;5027617;28;20950;-71
2022/12/10 00:31:58;;;;;;;24.90;21.73;;;;;;;-0.89;100.00;95767.22;4988928;28;20220;-71
2022/12/10 00:34:27;;;;;;;23.83;20.47;;;;;;;-0.95;100.00;95757.38;5023191;28;20207;-71
2022/12/10 00:36:55;;;;;;;24.20;19.70;;;;;;;-0.91;100.00;95758.75;5018567;28;20211;-70
2022/12/10 00:39:23;;;;;;;24.43;21.00;;;;;;;-0.98;100.00;95762.06;4967927;28;20215;-71
2022/12/10 00:41:50;;;;;;;23.97;19.47;;;;;;;-0.88;100.00;95763.66;5028847;28;20266;-73
2022/12/10 00:44:18;;;;;;;24.70;19.67;;;;;;;-0.88;100.00;95773.22;5027040;28;20207;-70
2022/12/10 00:46:45;;;;;;;26.93;21.63;;;;;;;-0.95;100.00;95779.97;4997926;28;20527;-73
2022/12/10 00:49:14;;;;;;;27.43;21.03;;;;;;;-0.86;100.00;95776.50;5025678;28;20205;-72
2022/12/10 00:51:43;;;;;;;26.50;20.97;;;;;;;-0.80;100.00;95765.50;5027373;28;20212;-72
2022/12/10 00:54:11;;;;;;;25.50;20.40;;;;;;;-0.85;100.00;95772.13;4976715;28;20211;-70
2022/12/10 00:56:38;;;;;;;26.40;20.30;;;;;;;-0.75;100.00;95773.69;4972052;28;20266;-72
2022/12/10 00:59:06;;;;;;;24.83;20.10;;;;;;;-0.70;100.00;95770.63;4995631;28;20876;-70
2022/12/10 01:01:35;;;;;;;27.73;21.97;;;;;;;-0.64;100.00;95777.03;5030694;28;20214;-72
2022/12/10 01:04:06;;;;;;;27.10;21.27;;;;;;;-0.69;100.00;95781.88;5003628;28;20212;-71
2022/12/10 01:06:36;;;;;;;23.73;19.40;;;;;;;-0.74;100.00;95774.50;5027013;28;20772;-72
2022/12/10 01:09:07;;;;;;;28.30;21.93;;;;;;;-0.76;100.00;95768.63;5020826;28;20204;-72
2022/12/10 01:11:37;;;;;;;31.23;23.07;;;;;;;-0.73;100.00;95766.56;4978856;28;20207;-73
2022/12/10 01:14:06;;;;;;;27.80;22.23;;;;;;;-0.83;100.00;95765.78;5021922;28;20669;-70
2022/12/10 01:16:34;;;;;;;29.27;23.30;;;;;;;-0.90;100.00;95765.59;5026459;28;20223;-73
2022/12/10 01:19:02;;;;;;;29.60;24.13;;;;;;;-0.85;100.00;95761.72;5030190;28;20197;-72
2022/12/10 01:21:30;;;;;;;25.40;21.20;;;;;;;-1.02;100.00;95761.53;4996543;28;20213;-70
2022/12/10 01:23:59;;;;;;;23.47;20.13;;;;;;;-1.17;100.00;95756.00;5032802;28;20378;-70
2022/12/10 01:26:30;;;;;;;25.00;21.77;;;;;;;-1.25;100.00;95772.34;5011018;28;20227;-72
2022/12/10 01:28:59;;;;;;;27.00;22.07;;;;;;;-1.38;100.00;95795.25;5009035;28;20259;-72
2022/12/10 01:31:28;;;;;;;27.20;22.13;;;;;;;-1.37;100.00;95795.09;5035563;28;20205;-71
2022/12/10 01:33:56;;;;;;;27.07;21.03;;;;;;;-1.19;100.00;95792.56;5024014;28;20438;-70
2022/12/10 01:36:25;;;;;;;29.37;22.30;;;;;;;-1.32;100.00;95812.88;4994388;28;20231;-70
2022/12/10 01:38:53;;;;;;;24.67;20.47;;;;;;;-1.17;100.00;95811.44;5027951;28;20550;-70
2022/12/10 01:41:22;;;;;;;30.33;21.73;;;;;;;-1.22;100.00;95813.66;5031570;28;20199;-73
2022/12/10 01:44:03;;;;;;;28.13;21.37;;;;;;;-1.10;100.00;95821.25;4972694;28;20207;-72
2022/12/10 01:46:32;;;;;;;27.87;20.97;;;;;;;-1.04;100.00;95826.69;5024238;28;20227;-72
2022/12/10 01:49:01;;;;;;;25.67;20.50;;;;;;;-0.95;100.00;95824.97;5026729;28;20615;-73
2022/12/10 01:51:31;;;;;;;31.10;21.63;;;;;;;-1.09;100.00;95822.88;5011194;28;20272;-69
2022/12/10 01:53:59;;;;;;;28.07;21.43;;;;;;;-1.19;100.00;95818.56;5014603;28;20785;-69
2022/12/10 01:56:27;;;;;;;24.27;20.90;;;;;;;-1.23;100.00;95826.78;5028932;28;20454;-71
2022/12/10 01:58:57;;;;;;;28.03;23.00;;;;;;;-1.30;100.00;95823.94;4953858;28;20208;-70
2022/12/10 02:01:31;;;;;;;30.13;22.03;;;;;;;-1.22;100.00;95823.22;5004335;28;20501;-71
2022/12/10 02:04:08;;;;;;;30.07;23.37;;;;;;;-1.21;100.00;95820.47;5025819;28;20772;-69
2022/12/10 02:06:45;;;;;;;28.80;21.27;;;;;;;-1.08;100.00;95820.16;5015754;28;20232;-73
2022/12/10 02:09:22;;;;;;;29.80;23.20;;;;;;;-1.06;100.00;95826.03;4994186;28;20457;-70
2022/12/10 02:11:59;;;;;;;29.07;22.63;;;;;;;-1.06;100.00;95826.03;5028041;28;20210;-72
2022/12/10 02:14:31;;;;;;;25.37;22.30;;;;;;;-0.96;100.00;95830.34;4979234;28;20243;-72
2022/12/10 02:17:03;;;;;;;32.47;23.07;;;;;;;-0.96;100.00;95830.34;5028218;28;20862;-71
2022/12/10 02:19:40;;;;;;;26.50;21.50;;;;;;;-0.96;100.00;95831.16;5030912;28;20691;-71
2022/12/10 02:22:09;;;;;;;30.83;22.57;;;;;;;-0.91;100.00;95828.97;4998195;28;20214;-72
2022/12/10 02:24:37;;;;;;;31.77;22.33;;;;;;;-0.85;100.00;95835.34;5026802;28;20214;-71
2022/12/10 02:27:07;;;;;;;25.47;21.60;;;;;;;-0.82;100.00;95829.03;5030132;28;20262;-73
2022/12/10 02:29:37;;;;;;;27.77;22.07;;;;;;;-0.91;100.00;95830.72;4980719;28;20689;-70
2022/12/10 02:32:07;;;;;;;28.17;24.43;;;;;;;-0.82;100.00;95824.63;5021630;28;20208;-71
2022/12/10 02:34:37;;;;;;;25.83;21.20;;;;;;;-0.75;100.00;95815.31;5027520;28;20203;-69
2022/12/10 02:37:08;;;;;;;27.17;22.37;;;;;;;-0.75;100.00;95819.69;5027525;28;20215;-72
2022/12/10 02:39:39;;;;;;;30.83;24.00;;;;;;;-0.78;100.00;95832.97;4991721;28;20660;-71
2022/12/10 02:42:08;;;;;;;32.43;23.03;;;;;;;-0.87;100.00;95834.66;5018924;28;20259;-72
2022/12/10 02:44:38;;;;;;;26.77;22.27;;;;;;;-0.84;100.00;95830.97;4975291;28;20223;-72
2022/12/10 02:47:07;;;;;;;26.33;21.43;;;;;;;-0.81;100.00;95822.88;5024575;28;20302;-72
2022/12/10 02:49:35;;;;;;;28.73;23.00;;;;;;;-0.86;100.00;95823.31;5027671;28;20207;-73
2022/12/10 02:52:08;;;;;;;28.07;23.20;;;;;;;-0.88;100.00;95826.06;5022228;28;20196;-72
2022/12/10 02:54:40;;;;;;;27.60;22.67;;;;;;;-0.92;100.00;95811.72;4997149;28;20570;-73
2022/12/10 02:57:40;;;;;;;28.33;21.93;;;;;;;-0.84;100.00;95821.38;5024262;28;20244;-71
2022/12/10 03:00:15;;;;;;;28.57;23.30;;;;;;;-0.85;100.00;95819.72;4918642;28;20216;-70
2022/12/10 03:02:59;;;;;;;28.30;22.80;;;;;;;-0.84;100.00;95812.75;5012215;28;20995;-72
2022/12/10 03:05:35;;;;;;;31.10;23.27;;;;;;;-0.82;100.00;95810.84;4966600;28;20216;-73
2022/12/10 03:08:06;;;;;;;29.30;23.43;;;;;;;-0.84;100.00;95808.38;5021171;28;20445;-73
2022/12/10 03:10:38;;;;;;;30.63;23.93;;;;;;;-0.91;100.00;95799.53;5025539;28;20208;-71
2022/12/10 03:13:09;;;;;;;33.60;23.97;;;;;;;-0.95;100.00;95796.38;5015787;28;20726;-71
2022/12/10 03:15:41;;;;;;;28.57;22.67;;;;;;;-0.97;100.00;95800.91;5011562;28;20207;-72
2022/12/10 03:18:09;;;;;;;30.53;24.67;;;;;;;-1.06;100.00;95788.78;5016333;28;20214;-72
2022/12/10 03:20:39;;;;;;;29.17;25.23;;;;;;;-1.11;100.00;95797.03;4968605;28;20506;-70
2022/12/10 03:23:10;;;;;;;32.37;24.47;;;;;;;-1.10;100.00;95803.88;5021689;28;20207;-72
2022/12/10 03:25:38;;;;;;;34.07;23.97;;;;;;;-1.15;100.00;95803.47;5031979;28;21431;-68
2022/12/10 03:28:06;;;;;;;30.20;23.40;;;;;;;-1.09;100.00;95802.09;5027025;28;20254;-71
2022/12/10 03:30:35;;;;;;;32.67;23.97;;;;;;;-1.10;100.00;95806.47;5021548;28;20216;-71
2022/12/10 03:33:05;;;;;;;28.03;22.40;;;;;;;-1.18;100.00;95803.75;4979439;28;20238;-70
2022/12/10 03:35:33;;;;;;;26.97;22.27;;;;;;;-1.23;100.00;95806.81;4968675;28;20208;-71
2022/12/10 03:38:01;;;;;;;32.47;23.57;;;;;;;-1.32;100.00;95810.28;5015133;28;20421;-73
2022/12/10 03:40:29;;;;;;;29.07;22.83;;;;;;;-1.26;100.00;95812.31;5024957;28;20196;-73
2022/12/10 03:42:56;;;;;;;29.97;23.27;;;;;;;-1.18;100.00;95811.56;4996008;28;20394;-74
2022/12/10 03:45:24;;;;;;;29.93;23.83;;;;;;;-1.12;100.00;95824.00;5025016;28;20509;-71
2022/12/10 03:47:51;;;;;;;32.40;25.67;;;;;;;-1.18;100.00;95809.78;4989479;28;20639;-71
2022/12/10 03:50:20;;;;;;;30.87;25.43;;;;;;;-1.14;100.00;95814.69;4979383;28;20208;-73
2022/12/10 03:52:48;;;;;;;32.90;25.07;;;;;;;-1.14;100.00;95809.50;5016148;28;20665;-73
2022/12/10 03:55:16;;;;;;;29.37;23.83;;;;;;;-1.14;100.00;95819.91;5020610;28;21004;-73
2022/12/10 03:57:44;;;;;;;30.70;23.80;;;;;;;-1.14;100.00;95814.69;4998210;28;20741;-76
2022/12/10 04:00:12;;;;;;;29.17;24.30;;;;;;;-1.23;100.00;95811.19;5023127;28;22269;-73
2022/12/10 04:02:40;;;;;;;35.80;24.70;;;;;;;-1.21;100.00;95802.28;5019013;28;20942;-76
2022/12/10 04:05:09;;;;;;;33.87;25.57;;;;;;;-1.27;100.00;95794.25;4999869;28;20203;-74
2022/12/10 04:07:37;;;;;;;33.57;24.40;;;;;;;-1.32;100.00;95795.50;4967955;28;20239;-74
2022/12/10 04:10:06;;;;;;;33.13;25.63;;;;;;;-1.31;100.00;95794.53;5023825;28;20208;-72
2022/12/10 04:12:35;;;;;;;33.73;25.07;;;;;;;-1.31;100.00;95789.34;5013256;28;20231;-74
2022/12/10 04:18:00;;;;;;;32.13;24.23;;;;;;;-1.36;100.00;95795.91;4958099;28;20317;-72
2022/12/10 04:28:53;;;;;;;31.67;22.53;;;;;;;-1.19;100.00;95805.56;5000112;28;20226;-74
2022/12/10 04:31:20;;;;;;;31.87;25.17;;;;;;;-1.14;100.00;95804.31;5028512;28;20739;-71
2022/12/10 04:33:48;;;;;;;34.90;26.53;;;;;;;-1.15;100.00;95800.06;4998324;28;20235;-73
2022/12/10 04:36:15;;;;;;;30.83;25.60;;;;;;;-1.15;100.00;95797.47;4994718;28;20514;-72
2022/12/10 04:38:44;;;;;;;35.40;26.70;;;;;;;-1.34;100.00;95797.41;4971766;28;20670;-71
2022/12/10 04:41:15;;;;;;;33.40;25.90;;;;;;;-1.36;100.00;95795.91;4989446;28;20517;-73
2022/12/10 04:43:43;;;;;;;32.70;26.83;;;;;;;-1.35;100.00;95800.16;5023612;28;20400;-69
2022/12/10 04:46:11;;;;;;;30.40;24.33;;;;;;;-1.47;100.00;95802.94;5022403;28;20639;-72
2022/12/10 04:48:39;;;;;;;34.93;25.10;;;;;;;-1.47;100.00;95805.53;4999594;28;20764;-70
2022/12/10 04:51:06;;;;;;;39.17;28.03;;;;;;;-1.43;100.00;95815.63;4995456;28;20457;-70
2022/12/10 04:53:34;;;;;;;35.50;25.40;;;;;;;-1.35;100.00;95813.97;4979728;28;20220;-72
2022/12/10 04:56:04;;;;;;;36.73;26.13;;;;;;;-1.34;100.00;95815.59;5022195;28;20352;-73
2022/12/10 04:58:32;;;;;;;37.03;30.95;;;;;;;-1.31;100.00;95814.50;5022323;28;20471;-73
2022/12/10 05:01:03;;;;;;;40.17;29.87;;;;;;;-1.22;100.00;95811.06;5014854;28;20207;-70
2022/12/10 05:03:31;;;;;;;39.03;27.43;;;;;;;-1.13;100.00;95818.94;5026739;28;20231;-71
2022/12/10 05:06:01;;;;;;;37.30;27.03;;;;;;;-1.12;100.00;95815.38;4971412;28;20369;-72
2022/12/10 05:08:29;;;;;;;32.73;25.60;;;;;;;-1.18;100.00;95815.00;5018652;28;20239;-72
2022/12/10 05:10:57;;;;;;;35.53;25.97;;;;;;;-1.12;100.00;95813.59;4971990;28;20860;-70
2022/12/10 05:13:25;;;;;;;35.43;25.67;;;;;;;-1.20;100.00;95816.91;4938784;28;20220;-71
2022/12/10 05:15:53;;;;;;;34.57;25.33;;;;;;;-1.14;100.00;95818.09;5024405;28;20471;-72
2022/12/10 05:18:21;;;;;;;36.20;26.27;;;;;;;-1.18;100.00;95819.34;4996814;28;20215;-70
2022/12/10 05:20:49;;;;;;;34.70;27.03;;;;;;;-1.18;100.00;95816.75;5025402;28;20226;-71
2022/12/10 05:23:28;;;;;;;35.63;26.20;;;;;;;-1.11;100.00;95820.44;5011860;28;20201;-72
2022/12/10 05:26:03;;;;;;;33.10;26.03;;;;;;;-1.16;100.00;95822.63;5019515;28;20486;-71
2022/12/10 05:28:34;;;;;;;34.03;25.90;;;;;;;-1.19;100.00;95823.75;4971477;28;20242;-70
2022/12/10 05:31:02;;;;;;;40.03;28.07;;;;;;;-1.13;100.00;95824.13;5027140;28;20219;-72
2022/12/10 05:33:30;;;;;;;37.37;25.70;;;;;;;-1.14;100.00;95825.09;4991937;28;20235;-71
2022/12/10 05:35:59;;;;;;;38.00;27.07;;;;;;;-1.14;100.00;95828.50;5028696;28;20518;-69
2022/12/10 05:38:27;;;;;;;39.83;28.10;;;;;;;-1.24;100.00;95830.34;4988441;28;21385;-70
2022/12/10 05:40:54;;;;;;;37.00;25.83;;;;;;;-1.35;100.00;95829.56;5031082;28;20505;-70
2022/12/10 05:43:23;;;;;;;41.25;33.17;;;;;;;-1.25;100.00;95834.72;4977102;28;20444;-71
2022/12/10 05:45:52;;;;;;;33.90;28.17;;;;;;;-1.27;100.00;95831.47;5026227;28;20203;-72
2022/12/10 05:48:20;;;;;;;37.23;27.87;;;;;;;-1.30;100.00;95826.53;4989407;28;22132;-69
2022/12/10 05:50:48;;;;;;;37.57;28.37;;;;;;;-1.29;100.00;95817.78;5002735;28;20675;-71
2022/12/10 05:53:17;;;;;;;39.03;27.13;;;;;;;-1.33;100.00;95817.25;4993639;28;21236;-71
2022/12/10 05:55:45;;;;;;;35.07;27.20;;;;;;;-1.31;100.00;95827.50;5031700;28;20681;-71
2022/12/10 05:58:14;;;;;;;37.43;27.20;;;;;;;-1.34;100.00;95827.78;4968897;28;20211;-72
2022/12/10 06:00:42;;;;;;;34.40;24.47;;;;;;;-1.34;100.00;95828.59;5025964;28;20199;-74
2022/12/10 06:03:11;;;;;;;33.60;25.90;;;;;;;-1.38;100.00;95831.63;5025958;28;20199;-72
2022/12/10 06:05:39;;;;;;;33.97;25.33;;;;;;;-1.30;100.00;95826.53;5002776;28;20211;-70
2022/12/10 06:08:07;;;;;;;37.23;26.37;;;;;;;-1.35;100.00;95821.78;5024106;28;20227;-70
2022/12/10 06:10:35;;;;;;;34.20;25.33;;;;;;;-1.37;100.00;95825.47;5027271;28;20203;-73
2022/12/10 06:13:03;;;;;;;38.53;27.67;;;;;;;-1.23;100.00;95821.56;4988707;28;20212;-70
2022/12/10 06:15:31;;;;;;;38.10;26.83;;;;;;;-1.31;100.00;95817.91;5029533;28;20219;-70
2022/12/10 06:17:59;;;;;;;40.20;28.07;;;;;;;-1.37;100.00;95822.84;5034282;28;20227;-73
2022/12/10 06:20:28;;;;;;;38.47;27.20;;;;;;;-1.40;100.00;95820.53;5010279;28;20234;-73
2022/12/10 06:22:56;;;;;;;36.63;27.20;;;;;;;-1.37;100.00;95815.06;5011452;28;20204;-73
2022/12/10 06:25:24;;;;;;;39.47;26.77;;;;;;;-1.32;100.00;95821.47;5012446;28;20890;-70
2022/12/10 06:27:52;;;;;;;35.43;25.90;;;;;;;-1.37;100.00;95828.88;5017159;28;20223;-71
2022/12/10 06:30:20;;;;;;;36.97;26.67;;;;;;;-1.33;100.00;95832.84;4979063;28;20318;-69
2022/12/10 06:32:47;;;;;;;35.97;26.23;;;;;;;-1.37;100.00;95835.84;5019380;28;20200;-70
2022/12/10 06:35:15;;;;;;;32.20;24.10;;;;;;;-1.28;100.00;95831.59;4995791;28;21359;-69
2022/12/10 06:37:44;;;;;;;36.47;28.33;;;;;;;-1.32;100.00;95833.66;4995278;28;20760;-70
2022/12/10 06:40:12;;;;;;;36.73;25.93;;;;;;;-1.34;100.00;95844.19;5026180;28;20298;-72
2022/12/10 06:42:40;;;;;;;35.23;24.93;;;;;;;-1.29;100.00;95851.56;5029962;28;20428;-70
2022/12/10 06:45:08;;;;;;;37.03;27.47;;;;;;;-1.33;100.00;95852.78;4976779;28;20333;-69
2022/12/10 06:47:36;;;;;;;33.47;25.43;;;;;;;-1.30;100.00;95849.94;5023765;28;20227;-71
2022/12/10 06:50:10;;;;;;;34.50;26.33;;;;;;;-1.30;100.00;95852.53;5024647;28;20510;-68
2022/12/10 06:52:37;;;;;;;34.63;24.63;;;;;;;-1.36;100.00;95848.72;4990692;28;20302;-71
2022/12/10 06:55:08;;;;;;;31.63;25.07;;;;;;;-1.27;100.00;95862.66;5028046;28;20875;-72
2022/12/10 06:57:36;;;;;;;36.50;26.73;;;;;;;-1.30;100.00;95865.53;5024709;28;20236;-73
2022/12/10 07:00:05;;;;;;;34.33;26.50;;;;;;;-1.17;100.00;95867.78;4975610;28;20216;-72
2022/12/10 07:02:33;;;;;;;31.93;25.33;;;;;;;-1.20;100.00;95874.09;5029867;28;20973;-75
2022/12/10 07:05:01;;;;;;;33.13;26.00;;;;;;;-1.14;100.00;95864.09;5027986;28;20223;-70
2022/12/10 07:07:29;;;;;;;35.07;26.97;;;;;;;-1.07;100.00;95865.16;5005489;28;21103;-72
2022/12/10 07:09:56;;;;;;;35.20;26.50;;;;;;;-1.05;100.00;95871.84;5029360;28;20234;-72
2022/12/10 07:12:25;;;;;;;34.33;25.33;;;;;;;-1.11;100.00;95866.41;5025604;28;20199;-71
2022/12/10 07:14:54;;;;;;;37.43;29.40;;;;;;;-1.21;100.00;95863.84;4998039;28;20207;-73
2022/12/10 07:17:22;;;;;;;35.00;28.20;;;;;;;-1.25;100.00;95868.50;5024713;28;20231;-73
2022/12/10 07:19:49;;;;;;;34.43;26.67;;;;;;;-1.21;100.00;95876.84;4961745;28;20875;-72
2022/12/10 07:22:17;;;;;;;34.73;26.93;;;;;;;-1.18;100.00;95864.38;5004924;28;20211;-72
2022/12/10 07:24:44;;;;;;;34.87;28.07;;;;;;;-1.18;100.00;95860.94;4971066;28;20223;-72
2022/12/10 07:27:12;;;;;;;33.47;26.13;;;;;;;-1.20;100.00;95853.31;4994012;28;20224;-72
2022/12/10 07:29:41;;;;;;;42.47;27.80;;;;;;;-1.21;100.00;95849.06;5024443;28;20838;-72
2022/12/10 07:32:09;;;;;;;40.83;29.90;;;;;;;-1.21;100.00;95841.28;5019152;28;20208;-72
2022/12/10 07:34:36;;;;;;;36.47;28.33;;;;;;;-1.19;100.00;95846.31;4971974;28;20372;-73
2022/12/10 07:37:04;;;;;;;45.23;33.10;;;;;;;-1.22;100.00;95844.00;5018298;28;20236;-70
2022/12/10 07:39:32;;;;;;;41.10;31.53;;;;;;;-1.19;100.00;95857.53;5029304;28;20203;-73
2022/12/10 07:42:00;;;;;;;36.07;28.00;;;;;;;-1.22;100.00;95852.63;4995460;28;20223;-71
2022/12/10 07:44:27;;;;;;;38.53;29.07;;;;;;;-1.13;100.00;95857.94;5027732;28;20222;-72
2022/12/10 07:46:56;;;;;;;38.30;29.53;;;;;;;-1.18;100.00;95861.78;5021472;28;20848;-71
2022/12/10 07:49:24;;;;;;;33.70;26.83;;;;;;;-1.18;100.00;95866.16;5026860;28;20223;-71
2022/12/10 07:51:52;;;;;;;38.17;28.53;;;;;;;-1.09;100.00;95873.09;4970239;28;20321;-72
2022/12/10 07:54:19;;;;;;;41.90;28.47;;;;;;;-1.10;100.00;95866.28;5032411;28;20744;-71
2022/12/10 07:56:47;;;;;;;34.90;27.13;;;;;;;-1.12;100.00;95872.56;4988391;28;20486;-72
2022/12/10 07:59:15;;;;;;;31.93;25.73;;;;;;;-1.11;100.00;95875.03;5024379;28;20207;-71
2022/12/10 08:01:42;;;;;;;39.03;26.30;;;;;;;-1.10;100.00;95883.63;5025902;28;20199;-73
2022/12/10 08:04:11;;;;;;;33.97;25.37;;;;;;;-1.05;100.00;95882.25;5026402;28;20239;-72
2022/12/10 08:06:39;;;;;;;36.40;26.20;;;;;;;-1.11;100.00;95876.78;4968664;28;20616;-69
2022/12/10 08:09:07;;;;;;;36.57;28.07;;;;;;;-1.03;100.00;95885.53;5028546;28;20382;-72
2022/12/10 08:11:35;;;;;;;36.10;26.77;;;;;;;-1.15;100.00;95885.84;5000220;28;20553;-72
2022/12/10 08:14:02;;;;;;;32.33;25.90;;;;;;;-1.02;100.00;95888.94;5025114;28;20536;-73
2022/12/10 08:16:32;;;;;;;40.10;28.10;;;;;;;-0.95;100.00;95892.59;5021772;28;20227;-71
2022/12/10 08:19:00;;;;;;;40.10;27.27;;;;;;;-0.95;100.00;95890.00;4999777;28;20567;-71
2022/12/10 08:21:31;;;;;;;36.37;26.37;;;;;;;-0.88;100.00;95880.69;4974035;28;20200;-72
2022/12/10 08:24:00;;;;;;;39.93;28.70;;;;;;;-0.71;100.00;95885.25;5023217;28;20275;-72
2022/12/10 08:26:29;;;;;;;36.93;27.30;;;;;;;-0.77;100.00;95891.84;5022265;28;20770;-71
2022/12/10 08:28:58;;;;;;;37.73;29.57;;;;;;;-0.73;100.00;95895.78;4998415;28;20219;-71
2022/12/10 08:31:27;;;;;;;35.13;27.27;;;;;;;-0.60;100.00;95895.44;5023423;28;20232;-72
2022/12/10 08:34:02;;;;;;;36.27;28.70;;;;;;;-0.68;100.00;95887.56;5022672;28;20302;-73
2022/12/10 08:36:31;;;;;;;36.83;27.53;;;;;;;-0.63;100.00;95893.13;5014442;28;20640;-70
2022/12/10 08:38:59;;;;;;;36.00;27.90;;;;;;;-0.71;100.00;95896.47;4975277;28;20222;-71
2022/12/10 08:41:26;;;;;;;35.43;27.17;;;;;;;-0.70;100.00;95898.09;5021455;28;20686;-71
2022/12/10 08:43:54;;;;;;;34.17;25.70;;;;;;;-0.60;100.00;95895.44;4993072;28;20214;-73
2022/12/10 08:46:22;;;;;;;34.60;24.73;;;;;;;-0.74;100.00;95894.97;5023434;28;20231;-72
2022/12/10 08:48:50;;;;;;;35.73;27.90;;;;;;;-0.66;100.00;95901.25;5030124;28;20200;-72
2022/12/10 08:51:19;;;;;;;36.23;28.80;;;;;;;-0.59;100.00;95897.88;5019234;28;20748;-72
2022/12/10 08:53:48;;;;;;;44.60;32.10;;;;;;;-0.67;100.00;95899.59;4967150;28;20211;-71
2022/12/10 08:56:16;;;;;;;38.90;29.87;;;;;;;-0.69;100.00;95897.13;5019322;28;20227;-71
2022/12/10 08:58:44;;;;;;;37.50;30.43;;;;;;;-0.46;100.00;95901.94;4995449;28;20795;-72
2022/12/10 09:01:13;;;;;;;38.83;30.40;;;;;;;-0.21;100.00;95908.22;5023367;28;20204;-72
2022/12/10 09:03:41;;;;;;;38.77;28.67;;;;;;;-0.31;100.00;95900.47;5028258;28;20514;-71
2022/12/10 09:06:10;;;;;;;34.97;29.70;;;;;;;-0.29;100.00;95900.31;5024101;28;20228;-72
2022/12/10 09:08:38;;;;;;;39.87;29.63;;;;;;;-0.42;100.00;95902.44;4973099;28;20825;-73
2022/12/10 09:11:09;;;;;;;39.93;29.13;;;;;;;-0.62;100.00;95903.38;5025002;28;20223;-72
2022/12/10 09:13:37;;;;;;;38.50;29.53;;;;;;;-0.60;100.00;95908.47;5025080;28;20203;-71
2022/12/10 09:16:05;;;;;;;38.47;28.47;;;;;;;-0.71;100.00;95899.06;4999035;28;20232;-71
2022/12/10 09:18:33;;;;;;;35.73;29.83;;;;;;;-0.66;100.00;95919.44;5024951;28;20205;-71
2022/12/10 09:21:05;;;;;;;36.43;27.60;;;;;;;-0.73;100.00;95907.03;5029795;28;20203;-72
2022/12/10 09:23:33;;;;;;;37.93;27.93;;;;;;;-0.59;100.00;95905.69;4972045;28;21899;-70
2022/12/10 09:26:01;;;;;;;37.53;27.27;;;;;;;-0.42;100.00;95908.50;4991130;28;20249;-72
2022/12/10 09:28:30;;;;;;;36.03;27.70;;;;;;;-0.24;100.00;95902.47;4982767;28;20215;-73
2022/12/10 09:30:59;;;;;;;41.07;30.03;;;;;;;-0.13;100.00;95893.63;5029597;28;20215;-72
2022/12/10 09:33:27;;;;;;;36.00;28.17;;;;;;;-0.09;100.00;95885.38;4995580;28;20555;-73
2022/12/10 09:35:56;;;;;;;36.27;27.57;;;;;;;-0.09;100.00;95890.59;5022932;28;20671;-72
2022/12/10 09:38:24;;;;;;;33.57;27.10;;;;;;;-0.04;100.00;95882.31;5026817;28;20410;-73
2022/12/10 09:41:00;;;;;;;33.03;25.57;;;;;;;0.00;100.00;95878.47;5011414;28;20622;-75
2022/12/10 09:43:42;;;;;;;30.43;26.20;;;;;;;-0.03;100.00;95891.75;5018278;28;20410;-72
2022/12/10 09:46:18;;;;;;;34.57;26.77;;;;;;;-0.16;100.00;95892.97;5026128;28;20382;-69
2022/12/10 09:48:53;;;;;;;32.37;26.50;;;;;;;-0.20;100.00;95896.00;4996575;28;20499;-72
2022/12/10 09:51:22;;;;;;;36.80;28.37;;;;;;;-0.09;100.00;95892.34;5019395;28;20489;-72
2022/12/10 09:53:58;;;;;;;36.30;26.67;;;;;;;-0.08;100.00;95884.41;5030700;28;20218;-73
2022/12/10 09:56:29;;;;;;;32.67;27.30;;;;;;;0.11;100.00;95883.44;5028563;28;20361;-70
2022/12/10 09:59:01;;;;;;;35.33;25.30;;;;;;;0.18;100.00;95888.03;4977759;28;20220;-72
2022/12/10 10:01:30;;;;;;;30.33;24.63;;;;;;;0.06;100.00;95879.63;5035855;28;20208;-72
2022/12/10 10:03:59;;;;;;;31.13;24.77;;;;;;;0.01;100.00;95877.50;5009911;28;20208;-73
2022/12/10 10:06:28;;;;;;;30.03;24.20;;;;;;;0.03;100.00;95872.97;5010926;28;20228;-71
2022/12/10 10:08:58;;;;;;;32.37;25.13;;;;;;;0.16;100.00;95869.13;5028151;28;20401;-71
2022/12/10 10:11:30;;;;;;;34.33;25.70;;;;;;;0.27;100.00;95871.50;5028974;28;20219;-70
2022/12/10 10:14:01;;;;;;;33.63;26.27;;;;;;;0.44;100.00;95869.81;4973439;28;20211;-71
2022/12/10 10:16:34;;;;;;;33.77;29.07;;;;;;;0.56;100.00;95862.56;5026209;28;20236;-72
2022/12/10 10:19:04;;;;;;;37.63;28.27;;;;;;;0.72;100.00;95864.44;5027331;28;20439;-73
2022/12/10 10:21:35;;;;;;;34.13;26.30;;;;;;;0.69;100.00;95864.75;4991809;28;20208;-72
2022/12/10 10:24:03;;;;;;;31.93;27.57;;;;;;;0.74;100.00;95867.72;5027260;28;20199;-72
2022/12/10 10:26:38;;;;;;;35.70;26.87;;;;;;;0.89;100.00;95857.53;5028378;28;20687;-71
2022/12/10 10:29:09;;;;;;;32.47;26.10;;;;;;;0.85;100.00;95859.63;4965646;28;20715;-70
2022/12/10 10:31:39;;;;;;;31.43;26.20;;;;;;;0.70;100.00;95864.59;5032004;28;20232;-73
2022/12/10 10:34:14;;;;;;;30.80;25.17;;;;;;;0.75;100.00;95860.69;5024615;28;20699;-73
2022/12/10 10:36:42;;;;;;;32.53;25.63;;;;;;;0.97;100.00;95860.16;4994271;28;20226;-73
2022/12/10 10:39:11;;;;;;;29.77;24.60;;;;;;;0.96;100.00;95858.53;5026078;28;20410;-71
2022/12/10 10:41:40;;;;;;;31.47;25.20;;;;;;;0.82;100.00;95853.91;5033697;28;20199;-72
2022/12/10 10:44:17;;;;;;;29.03;24.37;;;;;;;0.88;100.00;95855.06;4937060;28;20219;-72
2022/12/10 10:46:46;;;;;;;31.17;24.83;;;;;;;0.83;100.00;95869.38;5020979;28;20262;-73
2022/12/10 10:49:22;;;;;;;33.93;25.27;;;;;;;0.84;100.00;95873.63;5025814;28;20203;-69
2022/12/10 10:51:50;;;;;;;29.23;22.13;;;;;;;0.91;100.00;95867.78;4997685;28;20215;-71
2022/12/10 10:54:33;;;;;;;29.87;25.03;;;;;;;0.94;100.00;95873.53;5027722;28;20206;-74
2022/12/10 10:57:04;;;;;;;31.50;24.30;;;;;;;0.81;100.00;95870.53;5028916;28;20227;-73
2022/12/10 10:59:35;;;;;;;30.73;23.77;;;;;;;0.84;100.00;95865.00;4972621;28;20223;-72
2022/12/10 11:02:05;;;;;;;30.87;25.87;;;;;;;1.14;100.00;95863.66;5022327;28;20726;-71
2022/12/10 11:04:38;;;;;;;33.57;23.97;;;;;;;1.11;100.00;95869.19;5023513;28;20204;-70
2022/12/10 11:07:17;;;;;;;29.37;23.63;;;;;;;1.09;100.00;95862.50;4988872;28;20243;-71
2022/12/10 11:09:45;;;;;;;27.70;24.63;;;;;;;0.96;100.00;95871.56;5021987;28;20203;-73
2022/12/10 11:12:29;;;;;;;30.77;24.37;;;;;;;0.89;100.00;95877.56;5025830;28;20228;-72
2022/12/10 11:14:58;;;;;;;29.87;23.87;;;;;;;0.89;100.00;95867.13;4969240;28;20215;-72
2022/12/10 11:17:27;;;;;;;28.00;23.47;;;;;;;0.92;100.00;95857.22;4990447;28;20223;-72
2022/12/10 11:19:58;;;;;;;28.03;23.53;;;;;;;0.99;100.00;95857.41;5026600;28;20207;-71
2022/12/10 11:22:28;;;;;;;30.03;24.80;;;;;;;1.10;100.00;95845.88;4974152;28;20762;-71
2022/12/10 11:24:56;;;;;;;31.30;26.50;;;;;;;0.92;100.00;95846.78;5024825;28;20207;-71
2022/12/10 11:27:39;;;;;;;30.87;25.93;;;;;;;0.98;100.00;95840.94;5001524;28;20231;-73
2022/12/10 11:30:11;;;;;;;27.30;23.20;;;;;;;0.95;100.00;95832.63;4987672;28;23303;-71
2022/12/10 11:32:50;;;;;;;28.67;23.30;;;;;;;1.10;100.00;95841.47;5026596;28;20214;-71